Polo, Illinois
Current Conditions -  °F | °C
As of 10:15 AM on Wednesday 28 Jan 2015 (Local Time) from KFEP Reporting Station
Clear Clear  
Wind Chill: 16°   Ceiling: Unl
Heat Index: 28°   Visibility: 10mi
Dew Point: 21°   Wind: 14mph
Humidity: 77%   Direction: 150°SSE
Pressure: 30.21"   Gusts: NA
Location:  41.99°N, 89.58°W
Report Text: KFEP 281615Z AUTO 15012KT 10SM CLR M02/M06 A3021 RMK AO2 T10251060
Loading
Personal Weather Stations






























Interactive Weather Map New forecast layout! Learn more

10-Day Weather Forecast

Advertisements
Track Severe Weather on mobile